Time;durP1;ratioP1;P1;durP2;ratioP2;P2;SDS_P1;SDS_P2;PMS_P1;PMS_P2;Temp;Humidity;BMP_temperature;BMP_pressure;BME280_temperature;BME280_humidity;BME280_pressure;Samples;Min_cycle;Max_cycle;Signal;HPM_P1;HPM_P2
2023/04/18 00:03:30;;;;;;;13.70;9.50;;;;;;;8.49;87.12;100559.36;216508;1270;140403;-71
2023/04/18 00:08:36;;;;;;;13.60;10.00;;;;;;;8.48;87.38;100561.23;216168;1272;850962;-72
2023/04/18 00:13:41;;;;;;;17.20;10.50;;;;;;;8.49;87.39;100557.27;216702;1270;140066;-71
2023/04/18 00:18:45;;;;;;;12.80;9.70;;;;;;;8.48;87.53;100560.38;216351;1267;139822;-71
2023/04/18 00:23:49;;;;;;;14.50;9.40;;;;;;;8.45;87.44;100560.77;217236;1267;139862;-73
2023/04/18 00:28:54;;;;;;;14.90;10.10;;;;;;;8.42;87.49;100562.98;216894;1269;139259;-74
2023/04/18 00:33:58;;;;;;;15.90;10.70;;;;;;;8.39;87.49;100567.70;216657;1264;139913;-71
2023/04/18 00:39:02;;;;;;;18.00;12.00;;;;;;;8.36;87.80;100565.98;216739;1266;139535;-72
2023/04/18 00:44:06;;;;;;;16.80;11.20;;;;;;;8.35;88.00;100568.05;216826;1264;139482;-71
2023/04/18 00:49:15;;;;;;;21.70;12.10;;;;;;;8.33;88.01;100569.15;216795;1267;139928;-70
2023/04/18 00:54:21;;;;;;;16.60;11.40;;;;;;;8.31;87.88;100568.88;216670;1264;140992;-74
2023/04/18 00:59:26;;;;;;;18.50;11.60;;;;;;;8.27;88.09;100566.89;217925;1266;141225;-77
2023/04/18 01:04:33;;;;;;;17.70;12.70;;;;;;;8.24;87.81;100562.53;216850;1266;140517;-71
2023/04/18 01:09:39;;;;;;;18.50;11.50;;;;;;;8.20;88.02;100561.66;216644;1263;140483;-71
2023/04/18 01:14:45;;;;;;;14.10;11.70;;;;;;;8.18;87.84;100563.02;216729;1267;139959;-68
2023/04/18 01:19:51;;;;;;;15.90;12.00;;;;;;;8.16;87.92;100567.40;217259;1260;141663;-68
2023/04/18 01:24:56;;;;;;;15.10;10.40;;;;;;;8.11;88.30;100559.24;217009;1261;139743;-72
2023/04/18 01:30:03;;;;;;;17.10;12.20;;;;;;;8.09;88.02;100560.23;216950;1260;139460;-72
2023/04/18 01:35:10;;;;;;;16.50;11.10;;;;;;;8.05;88.22;100562.61;217972;1260;139309;-73
2023/04/18 01:40:15;;;;;;;17.40;11.40;;;;;;;7.99;88.21;100563.64;216976;1259;139404;-72
2023/04/18 01:45:21;;;;;;;19.70;12.70;;;;;;;7.95;88.52;100559.67;216868;1263;140108;-72
2023/04/18 01:50:26;;;;;;;21.40;12.00;;;;;;;7.92;88.89;100559.46;217140;1260;139567;-72
2023/04/18 01:55:31;;;;;;;18.60;11.40;;;;;;;7.89;88.71;100564.27;216951;1263;139400;-72
2023/04/18 02:00:36;;;;;;;17.80;10.90;;;;;;;7.86;88.90;100565.27;216894;1263;140378;-71
2023/04/18 02:05:41;;;;;;;18.20;12.20;;;;;;;7.84;89.01;100564.56;216864;1260;139604;-71
2023/04/18 02:10:45;;;;;;;18.00;10.90;;;;;;;7.84;88.91;100560.92;216904;1260;140198;-71
2023/04/18 02:15:51;;;;;;;20.00;12.70;;;;;;;7.80;89.12;100560.82;216996;1263;140795;-71
2023/04/18 02:20:56;;;;;;;21.00;12.80;;;;;;;7.79;89.14;100562.01;217039;1259;140017;-71
2023/04/18 02:26:01;;;;;;;18.80;10.60;;;;;;;7.77;89.52;100558.60;216862;1263;225989;-71
2023/04/18 02:31:13;;;;;;;23.10;12.20;;;;;;;7.76;89.30;100556.46;216978;1263;139933;-69
2023/04/18 02:36:18;;;;;;;18.80;11.30;;;;;;;7.77;89.41;100560.64;216882;1260;141611;-72
2023/04/18 02:41:23;;;;;;;20.40;11.70;;;;;;;7.75;89.85;100559.64;216959;1260;139685;-68
2023/04/18 02:46:27;;;;;;;17.70;11.10;;;;;;;7.76;89.65;100562.59;216920;1260;140296;-69
2023/04/18 02:51:32;;;;;;;20.60;15.40;;;;;;;7.75;89.54;100563.36;218013;1259;139723;-68
2023/04/18 02:56:38;;;;;;;19.40;13.20;;;;;;;7.77;89.67;100566.89;217061;1259;139595;-68
2023/04/18 03:01:44;;;;;;;21.90;13.20;;;;;;;7.76;89.80;100573.02;220175;1259;140787;-69
2023/04/18 03:06:49;;;;;;;24.10;13.40;;;;;;;7.76;89.82;100572.48;218067;1256;140254;-68
2023/04/18 03:11:54;;;;;;;24.50;14.90;;;;;;;7.77;90.05;100574.52;217458;1257;139887;-68
2023/04/18 03:16:58;;;;;;;27.20;15.00;;;;;;;7.72;89.81;100574.53;217800;1258;140192;-69
2023/04/18 03:22:02;;;;;;;28.00;17.60;;;;;;;7.71;90.04;100570.48;217476;1257;140265;-68
2023/04/18 03:27:06;;;;;;;30.60;16.00;;;;;;;7.70;90.03;100568.52;217491;1257;139759;-69
2023/04/18 03:32:11;;;;;;;33.50;16.90;;;;;;;7.69;90.08;100564.88;218103;1256;141315;-69
2023/04/18 03:37:16;;;;;;;24.10;15.00;;;;;;;7.68;90.30;100568.14;218488;1256;139686;-69
2023/04/18 03:42:20;;;;;;;26.80;16.10;;;;;;;7.68;90.31;100569.94;217280;1257;140193;-69
2023/04/18 03:47:25;;;;;;;21.10;12.30;;;;;;;7.69;90.37;100573.61;217601;1256;140764;-69
2023/04/18 03:52:29;;;;;;;23.00;14.50;;;;;;;7.68;90.22;100575.77;217441;1257;139448;-69
2023/04/18 03:57:33;;;;;;;24.20;15.00;;;;;;;7.70;90.43;100574.72;217425;1256;140815;-70
2023/04/18 04:02:38;;;;;;;32.60;19.00;;;;;;;7.72;90.13;100574.54;217583;1256;139657;-68
2023/04/18 04:07:44;;;;;;;23.70;15.30;;;;;;;7.73;90.66;100580.05;218667;1256;139723;-69
2023/04/18 04:12:49;;;;;;;31.00;19.10;;;;;;;7.76;90.28;100583.98;217455;1256;139229;-71
2023/04/18 04:17:53;;;;;;;30.80;19.50;;;;;;;7.77;90.48;100589.88;218391;1256;140847;-71
2023/04/18 04:22:58;;;;;;;32.80;19.10;;;;;;;7.80;90.26;100591.16;217639;1260;140261;-71
2023/04/18 04:28:03;;;;;;;32.00;18.10;;;;;;;7.81;90.43;100591.83;217389;1256;151255;-76
2023/04/18 04:33:07;;;;;;;23.70;15.50;;;;;;;7.83;90.31;100592.69;217293;1257;140898;-70
2023/04/18 04:38:13;;;;;;;28.20;18.00;;;;;;;7.85;90.50;100592.82;217379;1257;141500;-72
2023/04/18 04:43:19;;;;;;;31.30;19.20;;;;;;;7.86;90.24;100591.96;220407;1256;140136;-72
2023/04/18 04:48:23;;;;;;;34.10;18.00;;;;;;;7.85;90.26;100604.22;219416;1257;140234;-71
2023/04/18 04:53:31;;;;;;;23.30;14.00;;;;;;;7.89;90.59;100603.99;217321;1260;139965;-72
2023/04/18 04:58:35;;;;;;;27.10;15.70;;;;;;;7.90;90.62;100611.85;217367;1257;139518;-71
2023/04/18 05:03:39;;;;;;;30.90;18.50;;;;;;;7.91;90.34;100617.20;219654;1256;139782;-73
2023/04/18 05:08:56;;;;;;;21.10;14.40;;;;;;;7.92;90.50;100623.21;218603;1257;141072;-71
2023/04/18 05:14:02;;;;;;;35.30;23.30;;;;;;;7.94;90.51;100627.80;217617;1260;140407;-71
2023/04/18 05:19:08;;;;;;;33.40;20.00;;;;;;;7.94;90.57;100626.24;217298;1258;139827;-75
2023/04/18 05:24:13;;;;;;;30.50;16.60;;;;;;;7.98;90.71;100626.69;217874;1257;141150;-74
2023/04/18 05:29:19;;;;;;;29.10;17.10;;;;;;;8.00;90.27;100626.42;217317;1256;139359;-73
2023/04/18 05:34:23;;;;;;;22.80;16.50;;;;;;;7.99;90.35;100625.77;217975;1256;140285;-76
2023/04/18 05:39:28;;;;;;;29.60;17.80;;;;;;;8.00;90.50;100631.86;217503;1257;141477;-69
2023/04/18 05:44:32;;;;;;;28.20;17.40;;;;;;;8.02;90.37;100642.77;217504;1259;139562;-70
2023/04/18 05:49:37;;;;;;;34.50;18.50;;;;;;;8.04;90.28;100642.67;217571;1260;140388;-71
2023/04/18 05:54:42;;;;;;;32.60;19.60;;;;;;;8.07;90.50;100641.98;217418;1259;141712;-72
2023/04/18 05:59:48;;;;;;;26.30;15.40;;;;;;;8.10;90.65;100640.01;217428;1257;140238;-69
2023/04/18 06:04:52;;;;;;;30.90;17.10;;;;;;;8.13;90.37;100635.54;217452;1256;140530;-68
2023/04/18 06:09:58;;;;;;;32.30;19.40;;;;;;;8.18;90.44;100639.65;218118;1257;141424;-73
2023/04/18 06:15:04;;;;;;;36.50;20.90;;;;;;;8.23;90.63;100646.95;217383;1260;140653;-74
2023/04/18 06:20:10;;;;;;;27.60;16.10;;;;;;;8.32;90.60;100642.91;217442;1256;140264;-71
2023/04/18 06:25:14;;;;;;;28.60;16.90;;;;;;;8.39;90.24;100645.94;217644;1260;140788;-72
2023/04/18 06:30:20;;;;;;;29.50;14.40;;;;;;;8.43;90.27;100648.29;218718;1256;141071;-71
2023/04/18 06:35:25;;;;;;;32.70;18.70;;;;;;;8.43;89.91;100650.77;217253;1260;141022;-70
2023/04/18 06:40:29;;;;;;;28.50;16.70;;;;;;;8.48;90.20;100653.02;220252;1256;142215;-71
2023/04/18 06:45:35;;;;;;;29.20;20.20;;;;;;;8.52;89.92;100656.52;217686;1257;140775;-71
2023/04/18 06:50:39;;;;;;;33.50;19.10;;;;;;;8.65;89.91;100666.55;217859;1256;139784;-70
2023/04/18 06:55:44;;;;;;;49.20;20.90;;;;;;;8.76;90.00;100667.98;217466;1257;140469;-71
2023/04/18 07:00:55;;;;;;;29.80;18.00;;;;;;;8.87;89.80;100667.23;218833;1257;141906;-73
2023/04/18 07:06:00;;;;;;;32.20;18.60;;;;;;;8.92;89.60;100668.05;217561;1256;139758;-73
2023/04/18 07:11:05;;;;;;;33.90;21.60;;;;;;;8.95;89.47;100669.79;217613;1257;151725;-73
2023/04/18 07:16:10;;;;;;;28.30;19.70;;;;;;;8.95;89.31;100674.61;217584;1259;140722;-69
2023/04/18 07:21:15;;;;;;;26.70;16.50;;;;;;;8.98;89.47;100675.48;217476;1256;139932;-70
2023/04/18 07:26:20;;;;;;;33.80;21.40;;;;;;;8.99;89.28;100678.10;217445;1259;140108;-72
2023/04/18 07:31:27;;;;;;;24.60;18.70;;;;;;;8.96;88.88;100674.86;217760;1257;140459;-76
2023/04/18 07:36:32;;;;;;;29.60;19.20;;;;;;;8.97;88.75;100674.41;217663;1259;139592;-74
2023/04/18 07:41:37;;;;;;;28.00;19.40;;;;;;;9.04;89.01;100674.69;218178;1256;141121;-73
2023/04/18 07:46:42;;;;;;;21.80;17.10;;;;;;;9.13;88.98;100674.00;217812;1256;140333;-72
2023/04/18 07:51:47;;;;;;;24.80;15.60;;;;;;;9.30;89.04;100672.66;217381;1259;139978;-70
2023/04/18 07:56:52;;;;;;;27.10;16.50;;;;;;;9.48;88.86;100670.64;217658;1257;139735;-72
2023/04/18 08:01:56;;;;;;;26.90;18.20;;;;;;;9.61;88.59;100672.88;217743;1257;140323;-73
2023/04/18 08:07:00;;;;;;;24.40;17.60;;;;;;;9.70;88.29;100679.15;217358;1257;140635;-71
2023/04/18 08:12:05;;;;;;;25.50;15.70;;;;;;;9.85;88.15;100687.40;217528;1259;139790;-68
2023/04/18 08:17:09;;;;;;;27.80;17.60;;;;;;;9.90;87.83;100691.90;217937;1257;142438;-68
2023/04/18 08:22:14;;;;;;;31.60;20.60;;;;;;;9.96;87.80;100694.93;218409;1256;139762;-73
2023/04/18 08:27:19;;;;;;;27.50;17.00;;;;;;;10.04;87.54;100695.83;218642;1257;139684;-70
2023/04/18 08:52:31;;;;;;;24.00;17.00;;;;;;;10.40;86.84;100704.23;217648;1259;221205;-72
2023/04/18 08:57:36;;;;;;;21.20;15.00;;;;;;;10.45;86.57;100701.77;217270;1260;141441;-71
2023/04/18 09:02:41;;;;;;;24.60;16.70;;;;;;;10.54;86.41;100699.77;217810;1256;140243;-72
2023/04/18 09:07:48;;;;;;;20.30;15.10;;;;;;;10.72;86.18;100697.69;217691;1257;140708;-73
2023/04/18 09:12:53;;;;;;;26.00;16.50;;;;;;;10.89;86.21;100692.85;217605;1259;140463;-74
2023/04/18 09:18:01;;;;;;;20.50;14.00;;;;;;;11.13;86.09;100688.64;217721;1257;140279;-74
2023/04/18 09:23:13;;;;;;;19.80;13.70;;;;;;;11.33;85.62;100688.05;217713;1257;140957;-70
2023/04/18 09:28:32;;;;;;;22.70;14.70;;;;;;;11.51;85.30;100686.41;217661;1257;141464;-72
2023/04/18 09:33:38;;;;;;;22.80;15.60;;;;;;;11.66;84.62;100687.58;217589;1257;141653;-75
2023/04/18 09:38:44;;;;;;;23.40;15.20;;;;;;;11.90;84.37;100686.38;217550;1256;140814;-82
2023/04/18 09:43:51;;;;;;;18.20;13.90;;;;;;;12.19;84.04;100687.16;218538;1257;140505;-71
2023/04/18 09:48:55;;;;;;;21.40;14.60;;;;;;;12.47;83.88;100682.69;218350;1257;140855;-72
2023/04/18 09:54:03;;;;;;;17.80;12.70;;;;;;;12.67;82.90;100685.11;217389;1257;141362;-72
2023/04/18 09:59:09;;;;;;;19.50;14.00;;;;;;;12.83;82.27;100685.61;220394;1256;141290;-73
2023/04/18 10:04:16;;;;;;;18.00;15.00;;;;;;;13.09;82.20;100680.34;218885;1259;142481;-74
2023/04/18 10:09:22;;;;;;;19.50;14.20;;;;;;;13.39;81.92;100676.52;217679;1257;140909;-73
2023/04/18 10:14:29;;;;;;;18.60;13.20;;;;;;;13.70;81.42;100678.88;220421;1257;140520;-74
2023/04/18 10:19:34;;;;;;;16.00;13.40;;;;;;;13.96;80.99;100673.40;220106;1257;141346;-74
2023/04/18 10:24:46;;;;;;;15.30;12.00;;;;;;;14.16;80.62;100674.91;218368;1259;140835;-73
2023/04/18 10:29:53;;;;;;;19.00;13.60;;;;;;;14.37;80.10;100669.68;217849;1259;139831;-73
2023/04/18 10:34:59;;;;;;;18.10;14.20;;;;;;;14.34;79.23;100666.89;217791;1259;139891;-73
2023/04/18 10:40:06;;;;;;;17.90;13.90;;;;;;;14.26;78.67;100667.09;218262;1257;139388;-73
2023/04/18 10:45:18;;;;;;;19.00;14.70;;;;;;;14.33;78.60;100664.93;218603;1256;140367;-74
2023/04/18 10:50:23;;;;;;;17.00;13.80;;;;;;;14.66;78.27;100663.70;217992;1259;139576;-73
2023/04/18 10:55:29;;;;;;;14.90;12.00;;;;;;;14.90;77.75;100657.12;217542;1257;140277;-74
2023/04/18 11:00:34;;;;;;;19.90;15.10;;;;;;;15.20;77.60;100649.65;217427;1257;140642;-73
2023/04/18 11:05:39;;;;;;;16.60;14.80;;;;;;;15.23;76.42;100653.23;217732;1259;141483;-73
2023/04/18 11:10:58;;;;;;;19.30;15.10;;;;;;;15.27;75.69;100660.98;218453;1259;140978;-72
2023/04/18 11:16:04;;;;;;;21.10;15.60;;;;;;;15.04;75.05;100658.66;217714;1257;140931;-72
2023/04/18 11:21:09;;;;;;;19.90;15.10;;;;;;;14.89;75.41;100663.88;217824;1257;139831;-72
2023/04/18 11:26:16;;;;;;;18.90;14.30;;;;;;;15.02;75.13;100657.81;218111;1257;139938;-71
2023/04/18 11:31:24;;;;;;;;;;;;;;;15.24;75.18;100649.27;217524;1258;140155;-71
2023/04/18 11:36:37;;;;;;;20.30;15.60;;;;;;;15.53;75.03;100645.63;218739;1257;126595;-71
2023/04/18 11:41:49;;;;;;;20.20;16.10;;;;;;;15.69;74.34;100642.71;218443;1256;142336;-71
2023/04/18 11:46:55;;;;;;;15.10;13.60;;;;;;;15.67;73.55;100636.02;219324;1256;141746;-72
2023/04/18 11:52:02;;;;;;;22.30;16.70;;;;;;;15.59;73.01;100641.81;217718;1257;140986;-72
2023/04/18 11:57:22;;;;;;;16.00;14.20;;;;;;;15.65;72.84;100637.02;217603;1257;141808;-72
2023/04/18 12:02:42;;;;;;;18.40;13.40;;;;;;;15.90;72.37;100632.33;217672;1256;140491;-71
2023/04/18 12:07:49;;;;;;;14.00;12.30;;;;;;;16.22;72.04;100625.10;217941;1259;140186;-72
2023/04/18 12:12:57;;;;;;;12.50;10.20;;;;;;;16.27;71.17;100620.05;217336;1259;377689;-72
2023/04/18 12:18:04;;;;;;;13.60;10.80;;;;;;;16.00;70.03;100622.28;218532;1256;140205;-72
2023/04/18 12:23:10;;;;;;;15.00;11.40;;;;;;;15.87;70.01;100623.69;218241;1256;140999;-71
2023/04/18 12:28:15;;;;;;;15.30;12.20;;;;;;;16.04;70.48;100616.48;219173;1257;140217;-71
2023/04/18 12:33:19;;;;;;;17.30;11.00;;;;;;;16.08;69.85;100610.99;218096;1256;139369;-71
2023/04/18 12:38:24;;;;;;;11.70;10.20;;;;;;;16.05;69.41;100608.11;217508;1257;139644;-71
2023/04/18 12:43:28;;;;;;;13.40;11.00;;;;;;;16.15;69.11;100603.29;217859;1257;139921;-71
2023/04/18 12:48:33;;;;;;;11.70;10.50;;;;;;;16.21;68.92;100599.05;217564;1257;139932;-71
2023/04/18 12:53:36;;;;;;;13.10;10.00;;;;;;;15.94;68.54;100601.18;217543;1256;139756;-72
2023/04/18 12:58:40;;;;;;;13.20;11.80;;;;;;;15.64;68.36;100597.91;217613;1259;140147;-71
2023/04/18 13:03:43;;;;;;;15.30;11.40;;;;;;;15.47;68.63;100599.69;217708;1259;140451;-71
2023/04/18 13:08:55;;;;;;;12.30;10.80;;;;;;;15.41;68.60;100585.35;217799;1256;140986;-72
2023/04/18 13:14:01;;;;;;;13.10;10.50;;;;;;;15.36;68.94;100585.15;217653;1259;141747;-71
2023/04/18 13:19:05;;;;;;;15.50;11.70;;;;;;;15.38;69.30;100579.44;217546;1259;140044;-71
2023/04/18 13:24:09;;;;;;;13.60;9.60;;;;;;;15.40;69.21;100578.07;217526;1259;140816;-71
2023/04/18 13:29:12;;;;;;;13.90;11.10;;;;;;;15.22;69.14;100576.67;217502;1259;140778;-70
2023/04/18 13:34:16;;;;;;;17.60;13.10;;;;;;;14.99;69.08;100580.70;217583;1257;140828;-70
2023/04/18 13:39:23;;;;;;;16.60;11.70;;;;;;;14.63;69.02;100583.89;217459;1257;140530;-70
2023/04/18 13:44:28;;;;;;;16.10;13.50;;;;;;;14.34;69.31;100584.12;217618;1256;139604;-71
2023/04/18 13:49:35;;;;;;;15.30;10.50;;;;;;;14.21;70.04;100580.91;219711;1256;140511;-71
2023/04/18 13:54:40;;;;;;;12.60;11.30;;;;;;;14.21;70.03;100574.61;217450;1260;140583;-70
2023/04/18 13:59:44;;;;;;;15.10;10.50;;;;;;;14.23;70.12;100576.11;219841;1259;140463;-71
2023/04/18 14:04:48;;;;;;;15.30;13.00;;;;;;;14.33;70.37;100573.63;219633;1257;140867;-71
2023/04/18 14:09:54;;;;;;;14.70;10.90;;;;;;;14.52;70.40;100563.28;217733;1257;141139;-71
2023/04/18 14:15:05;;;;;;;13.20;10.40;;;;;;;14.79;70.42;100557.22;218976;1257;142211;-71
2023/04/18 14:20:20;;;;;;;13.30;11.80;;;;;;;15.02;69.72;100553.04;217604;1258;140928;-71
2023/04/18 14:25:23;;;;;;;13.90;11.70;;;;;;;15.08;69.27;100553.95;218012;1260;140254;-70
2023/04/18 14:30:27;;;;;;;14.50;12.30;;;;;;;15.05;68.89;100548.09;218712;1259;139840;-71
2023/04/18 14:35:32;;;;;;;18.50;13.30;;;;;;;15.04;68.88;100546.95;218237;1259;141158;-71
2023/04/18 14:40:36;;;;;;;28.10;12.20;;;;;;;15.06;68.55;100543.71;218140;1257;139913;-70
2023/04/18 14:45:40;;;;;;;12.10;10.80;;;;;;;15.04;68.36;100540.98;217551;1259;140385;-71
2023/04/18 14:50:45;;;;;;;16.40;11.30;;;;;;;15.01;68.05;100543.13;217616;1259;141049;-71
2023/04/18 14:55:49;;;;;;;12.60;10.50;;;;;;;14.98;68.27;100540.68;217807;1257;142302;-71
2023/04/18 15:00:53;;;;;;;13.80;11.00;;;;;;;14.91;68.23;100539.61;218177;1257;140696;-70
2023/04/18 15:05:57;;;;;;;12.70;9.20;;;;;;;14.76;68.17;100535.37;217655;1257;139720;-72
2023/04/18 15:11:07;;;;;;;12.40;10.30;;;;;;;14.63;67.76;100541.17;217479;1257;140775;-71
2023/04/18 15:16:12;;;;;;;11.30;8.70;;;;;;;14.59;67.93;100535.73;218313;1259;140253;-72
2023/04/18 15:21:18;;;;;;;;;;;;;;;14.58;67.86;100535.55;218091;1256;140732;-71
2023/04/18 15:26:23;;;;;;;9.40;7.90;;;;;;;14.50;67.70;100535.84;218384;1257;127434;-71
2023/04/18 15:31:26;;;;;;;9.90;8.70;;;;;;;14.47;67.66;100540.77;218580;1259;140154;-71
2023/04/18 15:36:30;;;;;;;11.80;8.80;;;;;;;14.42;67.53;100537.89;217603;1259;139801;-71
2023/04/18 15:41:35;;;;;;;8.80;7.70;;;;;;;14.40;67.30;100535.66;217507;1257;140876;-72
2023/04/18 15:46:39;;;;;;;11.00;6.30;;;;;;;14.39;67.61;100538.86;217705;1259;139547;-73
2023/04/18 15:52:07;;;;;;;8.60;6.70;;;;;;;14.37;67.48;100536.59;219313;1259;141183;-72
2023/04/18 15:57:35;;;;;;;8.10;5.40;;;;;;;14.33;67.28;100539.38;218480;1261;140544;-72
2023/04/18 16:02:39;;;;;;;8.30;6.50;;;;;;;14.30;67.55;100536.84;217937;1260;140669;-71
2023/04/18 16:07:43;;;;;;;6.80;5.40;;;;;;;14.25;67.24;100533.89;218668;1260;139847;-72
2023/04/18 16:12:47;;;;;;;9.20;6.60;;;;;;;14.18;67.45;100535.15;217681;1260;140853;-71
2023/04/18 16:17:52;;;;;;;7.40;6.60;;;;;;;14.13;67.52;100537.35;218199;1261;140867;-71
2023/04/18 16:22:57;;;;;;;9.20;6.40;;;;;;;14.06;67.51;100533.10;217421;1258;139813;-71
2023/04/18 16:28:01;;;;;;;7.00;6.30;;;;;;;14.00;67.73;100530.09;217875;1263;142017;-72
2023/04/18 16:33:05;;;;;;;7.60;6.20;;;;;;;13.93;67.78;100522.28;217713;1257;139623;-71
2023/04/18 16:38:09;;;;;;;9.90;6.30;;;;;;;13.85;67.88;100519.16;217363;1260;140521;-71
2023/04/18 16:43:14;;;;;;;6.50;5.80;;;;;;;13.79;68.19;100521.98;218408;1260;144630;-71
2023/04/18 16:48:18;;;;;;;11.70;6.40;;;;;;;13.73;68.21;100521.52;217975;1259;140400;-71
2023/04/18 16:53:22;;;;;;;7.00;5.90;;;;;;;13.70;68.49;100520.69;218176;1257;139981;-71
2023/04/18 16:58:26;;;;;;;6.10;5.50;;;;;;;13.66;68.56;100521.40;217621;1262;139175;-71
2023/04/18 17:03:30;;;;;;;6.40;5.40;;;;;;;13.60;68.74;100521.27;218248;1261;140082;-72
2023/04/18 17:08:34;;;;;;;8.60;6.30;;;;;;;13.52;68.65;100521.46;217747;1258;140938;-71
2023/04/18 17:13:38;;;;;;;8.90;6.30;;;;;;;13.42;68.63;100521.63;217643;1261;140508;-71
2023/04/18 17:18:42;;;;;;;9.90;6.30;;;;;;;13.36;68.87;100519.88;217582;1258;139834;-71
2023/04/18 17:23:46;;;;;;;14.60;7.10;;;;;;;13.30;69.20;100522.79;219205;1258;140945;-72
2023/04/18 17:28:50;;;;;;;7.90;6.90;;;;;;;13.24;69.15;100523.04;218793;1258;141479;-71
2023/04/18 17:33:55;;;;;;;6.70;5.80;;;;;;;13.22;69.28;100526.51;218468;1257;139491;-72
2023/04/18 17:39:05;;;;;;;9.80;7.20;;;;;;;13.17;69.66;100521.42;218058;1258;141688;-71
2023/04/18 17:44:09;;;;;;;8.70;7.00;;;;;;;13.11;69.88;100521.48;219147;1258;139890;-72
2023/04/18 17:49:13;;;;;;;8.20;6.50;;;;;;;13.04;69.83;100518.86;218045;1257;139512;-72
2023/04/18 17:54:18;;;;;;;9.60;7.00;;;;;;;12.98;70.15;100520.69;220182;1257;140244;-72
2023/04/18 17:59:22;;;;;;;11.10;7.60;;;;;;;12.92;70.09;100519.48;220043;1257;139865;-71
2023/04/18 18:04:27;;;;;;;9.30;7.90;;;;;;;12.89;70.24;100517.19;218485;1258;140020;-71
2023/04/18 18:09:31;;;;;;;11.00;7.60;;;;;;;12.84;70.72;100519.52;217754;1260;139684;-71
2023/04/18 18:14:35;;;;;;;7.80;6.30;;;;;;;12.77;70.74;100519.91;218737;1256;140271;-71
2023/04/18 18:19:39;;;;;;;11.10;7.80;;;;;;;12.70;71.09;100516.30;218284;1259;139600;-71
2023/04/18 18:24:43;;;;;;;10.60;7.40;;;;;;;12.63;71.05;100513.11;217645;1258;139989;-71
2023/04/18 18:29:48;;;;;;;10.80;7.60;;;;;;;12.55;71.21;100512.07;218178;1257;142868;-74
2023/04/18 18:34:54;;;;;;;13.90;8.30;;;;;;;12.48;71.26;100508.65;217728;1257;139831;-74
2023/04/18 18:39:58;;;;;;;12.40;8.50;;;;;;;12.41;71.25;100507.18;217847;1257;140266;-74
2023/04/18 18:45:03;;;;;;;12.10;8.50;;;;;;;12.37;71.19;100506.70;217658;1257;140798;-73
2023/04/18 18:50:10;;;;;;;11.20;8.50;;;;;;;12.32;71.19;100505.00;218415;1256;140409;-74
2023/04/18 18:55:15;;;;;;;13.80;10.60;;;;;;;12.25;71.46;100499.27;218399;1259;140851;-73
2023/04/18 19:00:20;;;;;;;14.80;9.60;;;;;;;12.21;71.41;100503.53;217476;1257;140482;-72
2023/04/18 19:05:25;;;;;;;13.30;8.40;;;;;;;12.13;71.25;100500.17;218480;1257;141518;-71
2023/04/18 19:10:30;;;;;;;12.60;9.10;;;;;;;12.08;71.03;100497.15;218393;1260;140940;-73
2023/04/18 19:15:35;;;;;;;13.30;9.10;;;;;;;12.04;71.09;100498.48;218162;1258;140805;-71
2023/04/18 19:20:40;;;;;;;12.00;8.50;;;;;;;12.00;71.09;100496.48;218248;1257;140197;-73
2023/04/18 19:25:44;;;;;;;13.90;9.90;;;;;;;11.93;71.17;100494.06;218708;1257;142880;-71
2023/04/18 19:30:49;;;;;;;11.40;8.90;;;;;;;11.86;71.20;100488.78;217575;1257;140374;-72
2023/04/18 19:35:53;;;;;;;13.20;9.90;;;;;;;11.76;70.99;100485.46;219460;1256;245729;-72
2023/04/18 19:40:58;;;;;;;13.00;9.20;;;;;;;11.70;70.72;100486.45;219841;1256;141888;-72
2023/04/18 19:46:04;;;;;;;12.60;8.60;;;;;;;11.67;70.68;100487.30;218910;1256;141002;-72
2023/04/18 19:51:09;;;;;;;13.60;9.20;;;;;;;11.65;70.89;100485.20;219245;1256;140088;-74
2023/04/18 19:56:14;;;;;;;10.50;7.70;;;;;;;11.59;70.90;100477.80;218950;1256;140691;-72
2023/04/18 20:01:20;;;;;;;15.70;9.80;;;;;;;11.55;70.83;100479.38;219498;1256;142819;-72
2023/04/18 20:06:25;;;;;;;11.10;8.20;;;;;;;11.49;70.79;100475.09;218512;1256;140710;-73
2023/04/18 20:11:30;;;;;;;20.60;7.90;;;;;;;11.44;70.84;100474.52;217879;1257;139745;-74
2023/04/18 20:16:34;;;;;;;9.30;7.00;;;;;;;11.38;70.65;100472.11;219337;1257;141068;-73
2023/04/18 20:21:38;;;;;;;11.40;7.60;;;;;;;11.31;70.56;100471.62;218952;1256;140869;-71
2023/04/18 20:26:42;;;;;;;11.00;6.90;;;;;;;11.24;70.79;100465.13;217736;1257;140314;-72
2023/04/18 20:31:47;;;;;;;9.40;8.30;;;;;;;11.18;70.70;100466.38;217797;1257;141177;-74
2023/04/18 20:36:51;;;;;;;9.80;8.00;;;;;;;11.12;70.76;100467.95;217531;1259;140361;-78
2023/04/18 20:41:56;;;;;;;11.30;7.80;;;;;;;11.07;70.98;100467.01;217365;1257;139626;-71
2023/04/18 20:47:02;;;;;;;10.60;8.30;;;;;;;11.01;71.06;100462.97;217574;1257;139869;-71
2023/04/18 20:52:10;;;;;;;12.10;8.20;;;;;;;10.94;71.22;100456.30;218689;1257;140680;-70
2023/04/18 20:57:14;;;;;;;9.80;8.10;;;;;;;10.89;71.15;100455.29;218430;1257;140392;-79
2023/04/18 21:02:18;;;;;;;11.70;8.00;;;;;;;10.82;71.22;100451.12;217521;1256;139831;-73
2023/04/18 21:07:24;;;;;;;8.80;7.00;;;;;;;10.76;71.63;100445.27;218389;1256;140079;-70
2023/04/18 21:12:33;;;;;;;9.70;8.40;;;;;;;10.69;71.58;100438.23;217442;1256;140628;-73
2023/04/18 21:17:38;;;;;;;10.40;7.70;;;;;;;10.64;71.74;100432.09;218416;1257;139552;-77
2023/04/18 21:22:43;;;;;;;11.60;8.80;;;;;;;10.57;71.95;100430.95;217159;1257;140698;-70
2023/04/18 21:27:49;;;;;;;11.40;8.80;;;;;;;10.51;71.94;100426.16;219221;1257;140390;-70
2023/04/18 21:32:54;;;;;;;13.40;9.90;;;;;;;10.45;72.13;100427.75;219541;1256;140984;-75
2023/04/18 21:37:59;;;;;;;10.00;7.90;;;;;;;10.39;72.13;100429.90;219962;1257;139580;-75
2023/04/18 21:43:03;;;;;;;9.80;8.20;;;;;;;10.32;72.39;100423.39;220574;1256;140324;-75
2023/04/18 21:48:08;;;;;;;9.40;7.20;;;;;;;10.26;72.64;100420.23;220512;1256;141176;-72
2023/04/18 21:53:13;;;;;;;13.20;8.60;;;;;;;10.18;72.71;100418.41;220436;1256;140655;-70
2023/04/18 21:58:17;;;;;;;14.30;9.50;;;;;;;10.12;72.97;100409.88;218094;1257;141367;-76
2023/04/18 22:03:30;;;;;;;14.70;9.70;;;;;;;10.07;73.31;100406.85;217711;1257;139653;-70
2023/04/18 22:08:35;;;;;;;14.90;10.00;;;;;;;9.98;73.54;100404.25;217617;1257;141079;-67
2023/04/18 22:13:39;;;;;;;10.60;9.20;;;;;;;9.87;74.01;100398.32;218496;1255;139946;-74
2023/04/18 22:18:44;;;;;;;14.40;11.20;;;;;;;9.81;74.32;100394.02;218460;1256;139779;-70
2023/04/18 22:23:48;;;;;;;17.00;10.50;;;;;;;9.75;74.62;100395.05;217822;1256;142201;-70
2023/04/18 22:28:55;;;;;;;15.30;10.50;;;;;;;9.71;75.00;100389.21;217681;1257;140567;-72
2023/04/18 22:34:00;;;;;;;12.20;8.20;;;;;;;9.68;75.35;100383.45;217918;1257;140624;-72
2023/04/18 22:39:07;;;;;;;15.00;10.30;;;;;;;9.64;75.58;100379.11;218259;1256;140566;-72
2023/04/18 22:44:11;;;;;;;13.70;10.00;;;;;;;9.61;75.86;100376.71;217939;1256;139930;-71
2023/04/18 22:49:16;;;;;;;11.90;10.10;;;;;;;9.61;76.22;100366.44;217648;1257;141913;-69
2023/04/18 22:54:21;;;;;;;14.70;10.60;;;;;;;9.59;76.50;100358.34;217970;1255;139521;-68
2023/04/18 22:59:26;;;;;;;20.20;11.50;;;;;;;9.57;76.78;100351.34;217877;1260;140202;-74
2023/04/18 23:04:32;;;;;;;16.30;11.20;;;;;;;9.53;77.09;100348.83;217753;1257;141202;-70
2023/04/18 23:09:36;;;;;;;18.30;11.10;;;;;;;9.47;77.55;100344.61;217741;1259;141689;-70
2023/04/18 23:14:42;;;;;;;16.70;11.40;;;;;;;9.41;77.95;100339.29;217929;1257;140619;-72